Terminal Aerodrome Forecast
Issued by NWS Dodge City, KS

Home | Current Version | Previous Version | Text Only | Print | Product List | Glossary On
Versions: 1 2 3 4 5 6 7 8 9 10 11 12 13 14 15 16 17 18 19 20 21 22 23 24 25 26 27 28
000
FTUS43 KDDC 271000 AAA
TAFDDC
TAF AMD
KDDC 271028Z 2710/2806 04012KT 6SM BR SCT010
      TEMPO 2711/2713 -SHRA BKN015
     FM271400 04015G22KT P6SM FEW150
     FM280100 30005KT P6SM SCT120=

USA.gov is the U.S. government's official web portal to all federal, state and local government web resources and services.